sensor_id;sensor_type;location;lat;lon;timestamp;P1;durP1;ratioP1;P2;durP2;ratioP2
76103;SDS011;64831;44.870;37.336;2023-08-01T00:02:19;4.95;;;3.70;;
76103;SDS011;64831;44.870;37.336;2023-08-01T00:04:46;6.80;;;3.83;;
76103;SDS011;64831;44.870;37.336;2023-08-01T00:07:11;5.03;;;3.97;;
76103;SDS011;64831;44.870;37.336;2023-08-01T00:09:37;9.65;;;4.03;;
76103;SDS011;64831;44.870;37.336;2023-08-01T00:12:03;6.88;;;3.72;;
76103;SDS011;64831;44.870;37.336;2023-08-01T00:14:30;9.02;;;3.60;;
76103;SDS011;64831;44.870;37.336;2023-08-01T00:16:56;6.28;;;4.00;;
76103;SDS011;64831;44.870;37.336;2023-08-01T00:19:21;7.05;;;4.22;;
76103;SDS011;64831;44.870;37.336;2023-08-01T00:21:47;8.10;;;4.10;;
76103;SDS011;64831;44.870;37.336;2023-08-01T00:24:13;12.13;;;4.20;;
76103;SDS011;64831;44.870;37.336;2023-08-01T00:26:39;8.25;;;3.97;;
76103;SDS011;64831;44.870;37.336;2023-08-01T00:29:05;7.70;;;4.10;;
76103;SDS011;64831;44.870;37.336;2023-08-01T00:31:31;5.93;;;4.05;;
76103;SDS011;64831;44.870;37.336;2023-08-01T00:33:58;8.68;;;3.95;;
76103;SDS011;64831;44.870;37.336;2023-08-01T00:36:24;7.63;;;3.90;;
76103;SDS011;64831;44.870;37.336;2023-08-01T00:38:50;7.13;;;4.00;;
76103;SDS011;64831;44.870;37.336;2023-08-01T00:41:16;6.47;;;4.10;;
76103;SDS011;64831;44.870;37.336;2023-08-01T00:43:42;9.82;;;4.45;;
76103;SDS011;64831;44.870;37.336;2023-08-01T00:46:08;12.15;;;4.10;;
76103;SDS011;64831;44.870;37.336;2023-08-01T00:48:34;4.57;;;3.90;;
76103;SDS011;64831;44.870;37.336;2023-08-01T00:51:01;9.27;;;4.20;;
76103;SDS011;64831;44.870;37.336;2023-08-01T00:53:30;8.13;;;4.43;;
76103;SDS011;64831;44.870;37.336;2023-08-01T00:55:57;8.45;;;3.80;;
76103;SDS011;64831;44.870;37.336;2023-08-01T00:58:24;6.72;;;4.28;;
76103;SDS011;64831;44.870;37.336;2023-08-01T01:00:50;7.03;;;4.00;;
76103;SDS011;64831;44.870;37.336;2023-08-01T01:03:16;8.65;;;4.03;;
76103;SDS011;64831;44.870;37.336;2023-08-01T01:05:47;9.85;;;4.40;;
76103;SDS011;64831;44.870;37.336;2023-08-01T01:08:19;6.38;;;4.20;;
76103;SDS011;64831;44.870;37.336;2023-08-01T01:10:46;6.80;;;3.92;;
76103;SDS011;64831;44.870;37.336;2023-08-01T01:13:12;10.02;;;4.40;;
76103;SDS011;64831;44.870;37.336;2023-08-01T01:15:38;6.38;;;4.03;;
76103;SDS011;64831;44.870;37.336;2023-08-01T01:18:04;5.03;;;4.00;;
76103;SDS011;64831;44.870;37.336;2023-08-01T01:20:33;13.30;;;4.20;;
76103;SDS011;64831;44.870;37.336;2023-08-01T01:23:01;6.40;;;4.47;;
76103;SDS011;64831;44.870;37.336;2023-08-01T01:25:29;5.45;;;3.72;;
76103;SDS011;64831;44.870;37.336;2023-08-01T01:27:56;11.43;;;4.45;;
76103;SDS011;64831;44.870;37.336;2023-08-01T01:30:24;6.63;;;3.90;;
76103;SDS011;64831;44.870;37.336;2023-08-01T01:32:51;8.57;;;4.35;;
76103;SDS011;64831;44.870;37.336;2023-08-01T01:35:18;6.57;;;4.10;;
76103;SDS011;64831;44.870;37.336;2023-08-01T01:37:44;6.22;;;4.13;;
76103;SDS011;64831;44.870;37.336;2023-08-01T01:40:10;8.05;;;3.95;;
76103;SDS011;64831;44.870;37.336;2023-08-01T01:42:36;7.93;;;4.45;;
76103;SDS011;64831;44.870;37.336;2023-08-01T01:45:02;12.45;;;5.00;;
76103;SDS011;64831;44.870;37.336;2023-08-01T01:47:29;8.93;;;4.68;;
76103;SDS011;64831;44.870;37.336;2023-08-01T01:49:54;7.43;;;4.40;;
76103;SDS011;64831;44.870;37.336;2023-08-01T01:52:20;7.95;;;4.00;;
76103;SDS011;64831;44.870;37.336;2023-08-01T01:54:47;9.02;;;4.53;;
76103;SDS011;64831;44.870;37.336;2023-08-01T01:57:13;9.00;;;4.32;;
76103;SDS011;64831;44.870;37.336;2023-08-01T01:59:39;9.18;;;4.38;;
76103;SDS011;64831;44.870;37.336;2023-08-01T02:02:05;6.72;;;4.47;;
76103;SDS011;64831;44.870;37.336;2023-08-01T02:04:31;8.23;;;4.47;;
76103;SDS011;64831;44.870;37.336;2023-08-01T02:06:57;7.40;;;4.82;;
76103;SDS011;64831;44.870;37.336;2023-08-01T02:09:23;12.43;;;4.97;;
76103;SDS011;64831;44.870;37.336;2023-08-01T02:11:50;9.05;;;4.57;;
76103;SDS011;64831;44.870;37.336;2023-08-01T02:14:15;7.40;;;4.82;;
76103;SDS011;64831;44.870;37.336;2023-08-01T02:16:41;9.10;;;4.72;;
76103;SDS011;64831;44.870;37.336;2023-08-01T02:19:08;12.32;;;4.88;;
76103;SDS011;64831;44.870;37.336;2023-08-01T02:21:35;6.82;;;4.70;;
76103;SDS011;64831;44.870;37.336;2023-08-01T02:24:01;6.78;;;4.70;;
76103;SDS011;64831;44.870;37.336;2023-08-01T02:26:28;9.63;;;4.68;;
76103;SDS011;64831;44.870;37.336;2023-08-01T02:28:54;11.50;;;5.35;;
76103;SDS011;64831;44.870;37.336;2023-08-01T02:31:20;6.95;;;4.97;;
76103;SDS011;64831;44.870;37.336;2023-08-01T02:33:46;8.73;;;4.90;;
76103;SDS011;64831;44.870;37.336;2023-08-01T02:36:12;6.07;;;5.18;;
76103;SDS011;64831;44.870;37.336;2023-08-01T02:38:38;8.45;;;5.10;;
76103;SDS011;64831;44.870;37.336;2023-08-01T02:41:04;6.15;;;4.97;;
76103;SDS011;64831;44.870;37.336;2023-08-01T02:43:30;11.65;;;4.80;;
76103;SDS011;64831;44.870;37.336;2023-08-01T02:45:56;7.55;;;5.05;;
76103;SDS011;64831;44.870;37.336;2023-08-01T02:48:22;7.85;;;5.18;;
76103;SDS011;64831;44.870;37.336;2023-08-01T02:50:48;10.18;;;5.43;;
76103;SDS011;64831;44.870;37.336;2023-08-01T02:53:14;6.50;;;4.93;;
76103;SDS011;64831;44.870;37.336;2023-08-01T02:55:40;9.23;;;5.60;;
76103;SDS011;64831;44.870;37.336;2023-08-01T02:58:05;13.18;;;5.47;;
76103;SDS011;64831;44.870;37.336;2023-08-01T03:00:31;8.90;;;5.88;;
76103;SDS011;64831;44.870;37.336;2023-08-01T03:02:57;9.65;;;5.80;;
76103;SDS011;64831;44.870;37.336;2023-08-01T03:05:23;9.65;;;5.70;;
76103;SDS011;64831;44.870;37.336;2023-08-01T03:07:49;12.82;;;5.95;;
76103;SDS011;64831;44.870;37.336;2023-08-01T03:10:15;9.43;;;5.65;;
76103;SDS011;64831;44.870;37.336;2023-08-01T03:12:41;9.55;;;6.15;;
76103;SDS011;64831;44.870;37.336;2023-08-01T03:15:07;9.80;;;5.88;;
76103;SDS011;64831;44.870;37.336;2023-08-01T03:17:34;10.60;;;5.55;;
76103;SDS011;64831;44.870;37.336;2023-08-01T03:20:01;12.57;;;5.70;;
76103;SDS011;64831;44.870;37.336;2023-08-01T03:22:28;11.20;;;6.05;;
76103;SDS011;64831;44.870;37.336;2023-08-01T03:24:54;10.15;;;6.07;;
76103;SDS011;64831;44.870;37.336;2023-08-01T03:27:20;13.82;;;6.00;;
76103;SDS011;64831;44.870;37.336;2023-08-01T03:29:46;10.05;;;5.75;;
76103;SDS011;64831;44.870;37.336;2023-08-01T03:32:12;10.10;;;5.63;;
76103;SDS011;64831;44.870;37.336;2023-08-01T03:34:38;12.38;;;5.53;;
76103;SDS011;64831;44.870;37.336;2023-08-01T03:37:06;8.55;;;5.93;;
76103;SDS011;64831;44.870;37.336;2023-08-01T03:39:32;15.77;;;7.13;;
76103;SDS011;64831;44.870;37.336;2023-08-01T03:41:58;10.95;;;6.13;;
76103;SDS011;64831;44.870;37.336;2023-08-01T03:44:24;11.23;;;6.88;;
76103;SDS011;64831;44.870;37.336;2023-08-01T03:46:49;9.52;;;5.85;;
76103;SDS011;64831;44.870;37.336;2023-08-01T03:49:15;13.35;;;6.20;;
76103;SDS011;64831;44.870;37.336;2023-08-01T03:51:41;14.20;;;5.40;;
76103;SDS011;64831;44.870;37.336;2023-08-01T03:54:07;7.93;;;5.28;;
76103;SDS011;64831;44.870;37.336;2023-08-01T03:56:33;9.38;;;6.40;;
76103;SDS011;64831;44.870;37.336;2023-08-01T03:58:59;11.85;;;6.03;;
76103;SDS011;64831;44.870;37.336;2023-08-01T04:01:25;9.88;;;5.95;;
76103;SDS011;64831;44.870;37.336;2023-08-01T04:03:52;10.25;;;6.22;;
76103;SDS011;64831;44.870;37.336;2023-08-01T04:06:18;10.13;;;6.20;;
76103;SDS011;64831;44.870;37.336;2023-08-01T04:08:44;9.75;;;5.47;;
76103;SDS011;64831;44.870;37.336;2023-08-01T04:11:10;9.88;;;5.63;;
76103;SDS011;64831;44.870;37.336;2023-08-01T04:13:36;8.02;;;5.68;;
76103;SDS011;64831;44.870;37.336;2023-08-01T04:16:02;8.95;;;5.38;;
76103;SDS011;64831;44.870;37.336;2023-08-01T04:18:28;11.55;;;5.70;;
76103;SDS011;64831;44.870;37.336;2023-08-01T04:20:54;11.52;;;5.90;;
76103;SDS011;64831;44.870;37.336;2023-08-01T04:23:20;11.10;;;6.15;;
76103;SDS011;64831;44.870;37.336;2023-08-01T04:25:46;13.45;;;5.50;;
76103;SDS011;64831;44.870;37.336;2023-08-01T04:28:12;9.75;;;5.65;;
76103;SDS011;64831;44.870;37.336;2023-08-01T04:30:38;8.80;;;6.07;;
76103;SDS011;64831;44.870;37.336;2023-08-01T04:33:04;12.95;;;6.03;;
76103;SDS011;64831;44.870;37.336;2023-08-01T04:35:30;15.00;;;6.00;;
76103;SDS011;64831;44.870;37.336;2023-08-01T04:37:56;20.60;;;6.00;;
76103;SDS011;64831;44.870;37.336;2023-08-01T04:40:22;11.98;;;5.63;;
76103;SDS011;64831;44.870;37.336;2023-08-01T04:42:49;8.45;;;5.20;;
76103;SDS011;64831;44.870;37.336;2023-08-01T04:45:14;11.75;;;5.57;;
76103;SDS011;64831;44.870;37.336;2023-08-01T04:47:40;9.38;;;5.35;;
76103;SDS011;64831;44.870;37.336;2023-08-01T04:50:06;16.15;;;5.95;;
76103;SDS011;64831;44.870;37.336;2023-08-01T04:52:32;15.00;;;5.20;;
76103;SDS011;64831;44.870;37.336;2023-08-01T04:54:58;14.90;;;7.32;;
76103;SDS011;64831;44.870;37.336;2023-08-01T04:57:24;8.50;;;5.05;;
76103;SDS011;64831;44.870;37.336;2023-08-01T04:59:50;6.13;;;4.30;;
76103;SDS011;64831;44.870;37.336;2023-08-01T05:02:16;6.22;;;4.57;;
76103;SDS011;64831;44.870;37.336;2023-08-01T05:04:42;7.05;;;4.57;;
76103;SDS011;64831;44.870;37.336;2023-08-01T05:07:08;7.28;;;4.45;;
76103;SDS011;64831;44.870;37.336;2023-08-01T05:09:34;10.20;;;4.50;;
76103;SDS011;64831;44.870;37.336;2023-08-01T05:11:59;8.32;;;4.85;;
76103;SDS011;64831;44.870;37.336;2023-08-01T05:14:25;9.63;;;4.80;;
76103;SDS011;64831;44.870;37.336;2023-08-01T05:16:51;5.78;;;4.57;;
76103;SDS011;64831;44.870;37.336;2023-08-01T05:19:17;12.68;;;4.45;;
76103;SDS011;64831;44.870;37.336;2023-08-01T05:21:43;9.52;;;4.43;;
76103;SDS011;64831;44.870;37.336;2023-08-01T05:24:09;8.93;;;4.28;;
76103;SDS011;64831;44.870;37.336;2023-08-01T05:26:35;5.88;;;3.20;;
76103;SDS011;64831;44.870;37.336;2023-08-01T05:29:01;5.10;;;3.10;;
76103;SDS011;64831;44.870;37.336;2023-08-01T05:31:27;6.43;;;2.47;;
76103;SDS011;64831;44.870;37.336;2023-08-01T05:33:53;9.90;;;5.88;;
76103;SDS011;64831;44.870;37.336;2023-08-01T05:36:19;4.32;;;2.65;;
76103;SDS011;64831;44.870;37.336;2023-08-01T05:38:45;4.05;;;2.40;;
76103;SDS011;64831;44.870;37.336;2023-08-01T05:41:11;3.65;;;2.25;;
76103;SDS011;64831;44.870;37.336;2023-08-01T05:43:37;4.38;;;2.17;;
76103;SDS011;64831;44.870;37.336;2023-08-01T05:46:03;8.25;;;2.20;;
76103;SDS011;64831;44.870;37.336;2023-08-01T05:48:29;4.35;;;2.00;;
76103;SDS011;64831;44.870;37.336;2023-08-01T05:50:55;3.50;;;2.10;;
76103;SDS011;64831;44.870;37.336;2023-08-01T05:53:21;5.80;;;2.22;;
76103;SDS011;64831;44.870;37.336;2023-08-01T05:55:47;5.15;;;2.42;;
76103;SDS011;64831;44.870;37.336;2023-08-01T05:58:13;2.15;;;1.60;;
76103;SDS011;64831;44.870;37.336;2023-08-01T06:00:39;3.83;;;1.80;;
76103;SDS011;64831;44.870;37.336;2023-08-01T06:03:05;14.27;;;1.65;;
76103;SDS011;64831;44.870;37.336;2023-08-01T06:05:31;3.22;;;1.80;;
76103;SDS011;64831;44.870;37.336;2023-08-01T06:07:57;3.08;;;1.50;;
76103;SDS011;64831;44.870;37.336;2023-08-01T06:10:24;5.97;;;1.90;;
76103;SDS011;64831;44.870;37.336;2023-08-01T06:12:50;2.42;;;2.05;;
76103;SDS011;64831;44.870;37.336;2023-08-01T06:15:16;2.50;;;1.90;;
76103;SDS011;64831;44.870;37.336;2023-08-01T06:17:42;3.47;;;2.05;;
76103;SDS011;64831;44.870;37.336;2023-08-01T06:20:08;2.10;;;1.67;;
76103;SDS011;64831;44.870;37.336;2023-08-01T06:22:34;3.17;;;1.88;;
76103;SDS011;64831;44.870;37.336;2023-08-01T06:25:00;2.97;;;1.70;;
76103;SDS011;64831;44.870;37.336;2023-08-01T06:27:26;1.85;;;1.40;;
76103;SDS011;64831;44.870;37.336;2023-08-01T06:29:52;1.65;;;1.55;;
76103;SDS011;64831;44.870;37.336;2023-08-01T06:32:18;4.43;;;1.70;;
76103;SDS011;64831;44.870;37.336;2023-08-01T06:34:44;3.35;;;1.70;;
76103;SDS011;64831;44.870;37.336;2023-08-01T06:37:10;9.00;;;1.63;;
76103;SDS011;64831;44.870;37.336;2023-08-01T06:39:36;6.90;;;1.73;;
76103;SDS011;64831;44.870;37.336;2023-08-01T06:42:02;5.45;;;1.80;;
76103;SDS011;64831;44.870;37.336;2023-08-01T06:44:28;4.60;;;2.33;;
76103;SDS011;64831;44.870;37.336;2023-08-01T06:46:54;4.45;;;1.63;;
76103;SDS011;64831;44.870;37.336;2023-08-01T06:49:20;3.05;;;2.08;;
76103;SDS011;64831;44.870;37.336;2023-08-01T06:51:46;6.05;;;1.95;;
76103;SDS011;64831;44.870;37.336;2023-08-01T06:54:12;4.57;;;1.90;;
76103;SDS011;64831;44.870;37.336;2023-08-01T06:56:38;6.07;;;1.90;;
76103;SDS011;64831;44.870;37.336;2023-08-01T06:59:03;4.90;;;2.00;;
76103;SDS011;64831;44.870;37.336;2023-08-01T07:01:29;5.80;;;1.83;;
76103;SDS011;64831;44.870;37.336;2023-08-01T07:03:56;5.35;;;1.90;;
76103;SDS011;64831;44.870;37.336;2023-08-01T07:06:22;4.10;;;1.95;;
76103;SDS011;64831;44.870;37.336;2023-08-01T07:08:49;4.90;;;2.33;;
76103;SDS011;64831;44.870;37.336;2023-08-01T07:11:15;4.38;;;2.10;;
76103;SDS011;64831;44.870;37.336;2023-08-01T07:13:41;4.43;;;2.20;;
76103;SDS011;64831;44.870;37.336;2023-08-01T07:16:07;2.58;;;1.60;;
76103;SDS011;64831;44.870;37.336;2023-08-01T07:18:32;6.88;;;2.05;;
76103;SDS011;64831;44.870;37.336;2023-08-01T07:21:02;3.15;;;1.67;;
76103;SDS011;64831;44.870;37.336;2023-08-01T07:23:29;5.07;;;1.77;;
76103;SDS011;64831;44.870;37.336;2023-08-01T07:25:56;2.63;;;2.00;;
76103;SDS011;64831;44.870;37.336;2023-08-01T07:28:22;3.53;;;1.80;;
76103;SDS011;64831;44.870;37.336;2023-08-01T07:30:48;3.60;;;1.70;;
76103;SDS011;64831;44.870;37.336;2023-08-01T07:33:22;5.82;;;2.00;;
76103;SDS011;64831;44.870;37.336;2023-08-01T07:35:48;4.03;;;1.80;;
76103;SDS011;64831;44.870;37.336;2023-08-01T07:38:14;4.75;;;2.25;;
76103;SDS011;64831;44.870;37.336;2023-08-01T07:40:40;7.30;;;2.20;;
76103;SDS011;64831;44.870;37.336;2023-08-01T07:43:06;5.55;;;2.20;;
76103;SDS011;64831;44.870;37.336;2023-08-01T07:45:33;3.90;;;1.90;;
76103;SDS011;64831;44.870;37.336;2023-08-01T07:48:00;3.72;;;1.65;;
76103;SDS011;64831;44.870;37.336;2023-08-01T07:50:26;5.68;;;2.08;;
76103;SDS011;64831;44.870;37.336;2023-08-01T07:52:52;11.80;;;2.20;;
76103;SDS011;64831;44.870;37.336;2023-08-01T07:55:18;4.22;;;1.83;;
76103;SDS011;64831;44.870;37.336;2023-08-01T07:57:46;5.78;;;2.00;;
76103;SDS011;64831;44.870;37.336;2023-08-01T08:00:12;4.18;;;1.70;;
76103;SDS011;64831;44.870;37.336;2023-08-01T08:02:41;2.72;;;1.90;;
76103;SDS011;64831;44.870;37.336;2023-08-01T08:05:08;9.82;;;2.10;;
76103;SDS011;64831;44.870;37.336;2023-08-01T08:07:35;3.35;;;1.73;;
76103;SDS011;64831;44.870;37.336;2023-08-01T08:10:02;10.57;;;3.78;;
76103;SDS011;64831;44.870;37.336;2023-08-01T08:12:31;4.22;;;1.90;;
76103;SDS011;64831;44.870;37.336;2023-08-01T08:14:58;4.68;;;1.90;;
76103;SDS011;64831;44.870;37.336;2023-08-01T08:17:23;5.07;;;2.03;;
76103;SDS011;64831;44.870;37.336;2023-08-01T08:19:49;2.60;;;1.70;;
76103;SDS011;64831;44.870;37.336;2023-08-01T08:22:15;3.92;;;1.83;;
76103;SDS011;64831;44.870;37.336;2023-08-01T08:24:41;5.30;;;1.80;;
76103;SDS011;64831;44.870;37.336;2023-08-01T08:27:07;2.78;;;2.05;;
76103;SDS011;64831;44.870;37.336;2023-08-01T08:29:33;2.60;;;1.88;;
76103;SDS011;64831;44.870;37.336;2023-08-01T08:31:59;3.67;;;2.00;;
76103;SDS011;64831;44.870;37.336;2023-08-01T08:34:25;3.75;;;2.00;;
76103;SDS011;64831;44.870;37.336;2023-08-01T08:36:51;2.67;;;1.88;;
76103;SDS011;64831;44.870;37.336;2023-08-01T08:39:17;3.70;;;2.08;;
76103;SDS011;64831;44.870;37.336;2023-08-01T08:41:51;3.60;;;2.10;;
76103;SDS011;64831;44.870;37.336;2023-08-01T08:44:18;4.97;;;1.70;;
76103;SDS011;64831;44.870;37.336;2023-08-01T08:46:50;5.00;;;2.20;;
76103;SDS011;64831;44.870;37.336;2023-08-01T08:49:18;3.85;;;2.17;;
76103;SDS011;64831;44.870;37.336;2023-08-01T08:51:47;6.13;;;2.00;;
76103;SDS011;64831;44.870;37.336;2023-08-01T08:54:14;4.63;;;1.92;;
76103;SDS011;64831;44.870;37.336;2023-08-01T08:56:41;5.63;;;2.10;;
76103;SDS011;64831;44.870;37.336;2023-08-01T08:59:08;6.60;;;2.08;;
76103;SDS011;64831;44.870;37.336;2023-08-01T09:01:37;3.95;;;1.65;;
76103;SDS011;64831;44.870;37.336;2023-08-01T09:04:04;2.38;;;1.90;;
76103;SDS011;64831;44.870;37.336;2023-08-01T09:06:40;2.97;;;1.77;;
76103;SDS011;64831;44.870;37.336;2023-08-01T09:09:12;4.53;;;2.38;;
76103;SDS011;64831;44.870;37.336;2023-08-01T09:14:18;2.42;;;2.22;;
76103;SDS011;64831;44.870;37.336;2023-08-01T09:16:45;5.38;;;2.00;;
76103;SDS011;64831;44.870;37.336;2023-08-01T09:19:18;3.95;;;2.00;;
76103;SDS011;64831;44.870;37.336;2023-08-01T09:21:46;3.70;;;2.40;;
76103;SDS011;64831;44.870;37.336;2023-08-01T09:24:13;5.18;;;2.22;;
76103;SDS011;64831;44.870;37.336;2023-08-01T09:26:41;2.45;;;2.00;;
76103;SDS011;64831;44.870;37.336;2023-08-01T09:29:08;3.67;;;2.10;;
76103;SDS011;64831;44.870;37.336;2023-08-01T09:31:37;4.47;;;2.30;;
76103;SDS011;64831;44.870;37.336;2023-08-01T09:34:05;3.05;;;2.05;;
76103;SDS011;64831;44.870;37.336;2023-08-01T09:36:34;6.03;;;2.20;;
76103;SDS011;64831;44.870;37.336;2023-08-01T09:39:01;7.70;;;1.83;;
76103;SDS011;64831;44.870;37.336;2023-08-01T09:41:28;4.05;;;2.13;;
76103;SDS011;64831;44.870;37.336;2023-08-01T09:43:55;6.63;;;2.05;;
76103;SDS011;64831;44.870;37.336;2023-08-01T09:46:22;5.15;;;1.90;;
76103;SDS011;64831;44.870;37.336;2023-08-01T09:48:48;5.22;;;2.00;;
76103;SDS011;64831;44.870;37.336;2023-08-01T09:51:15;13.48;;;2.25;;
76103;SDS011;64831;44.870;37.336;2023-08-01T09:53:52;3.80;;;2.08;;
76103;SDS011;64831;44.870;37.336;2023-08-01T09:58:52;10.55;;;6.80;;
76103;SDS011;64831;44.870;37.336;2023-08-01T10:01:20;8.40;;;2.10;;
76103;SDS011;64831;44.870;37.336;2023-08-01T10:03:51;7.00;;;1.95;;
76103;SDS011;64831;44.870;37.336;2023-08-01T10:06:19;7.15;;;1.90;;
76103;SDS011;64831;44.870;37.336;2023-08-01T10:08:50;5.43;;;2.00;;
76103;SDS011;64831;44.870;37.336;2023-08-01T10:11:20;1.83;;;1.48;;
76103;SDS011;64831;44.870;37.336;2023-08-01T10:13:47;5.10;;;2.33;;
76103;SDS011;64831;44.870;37.336;2023-08-01T10:16:14;4.75;;;2.15;;
76103;SDS011;64831;44.870;37.336;2023-08-01T10:18:42;5.60;;;2.15;;
76103;SDS011;64831;44.870;37.336;2023-08-01T10:21:10;4.20;;;2.40;;
76103;SDS011;64831;44.870;37.336;2023-08-01T10:23:39;3.88;;;2.33;;
76103;SDS011;64831;44.870;37.336;2023-08-01T10:26:07;6.18;;;2.30;;
76103;SDS011;64831;44.870;37.336;2023-08-01T10:28:35;3.08;;;2.05;;
76103;SDS011;64831;44.870;37.336;2023-08-01T10:31:09;5.90;;;2.38;;
76103;SDS011;64831;44.870;37.336;2023-08-01T10:33:40;3.92;;;2.40;;
76103;SDS011;64831;44.870;37.336;2023-08-01T10:36:20;6.82;;;2.30;;
76103;SDS011;64831;44.870;37.336;2023-08-01T10:43:51;4.95;;;2.30;;
76103;SDS011;64831;44.870;37.336;2023-08-01T10:46:17;4.57;;;2.40;;
76103;SDS011;64831;44.870;37.336;2023-08-01T10:48:49;5.38;;;2.33;;
76103;SDS011;64831;44.870;37.336;2023-08-01T10:51:19;4.82;;;2.10;;
76103;SDS011;64831;44.870;37.336;2023-08-01T10:53:45;2.10;;;1.90;;
76103;SDS011;64831;44.870;37.336;2023-08-01T10:56:15;13.95;;;4.07;;
76103;SDS011;64831;44.870;37.336;2023-08-01T10:58:42;4.50;;;1.98;;
76103;SDS011;64831;44.870;37.336;2023-08-01T11:01:08;3.38;;;1.98;;
76103;SDS011;64831;44.870;37.336;2023-08-01T11:03:35;3.78;;;2.08;;
76103;SDS011;64831;44.870;37.336;2023-08-01T11:06:02;3.03;;;1.90;;
76103;SDS011;64831;44.870;37.336;2023-08-01T11:08:39;2.05;;;1.77;;
76103;SDS011;64831;44.870;37.336;2023-08-01T11:11:06;2.60;;;1.85;;
76103;SDS011;64831;44.870;37.336;2023-08-01T11:13:35;5.95;;;2.08;;
76103;SDS011;64831;44.870;37.336;2023-08-01T11:16:05;3.95;;;2.10;;
76103;SDS011;64831;44.870;37.336;2023-08-01T11:18:44;3.10;;;1.80;;
76103;SDS011;64831;44.870;37.336;2023-08-01T11:21:10;4.40;;;2.00;;
76103;SDS011;64831;44.870;37.336;2023-08-01T11:23:36;6.97;;;2.38;;
76103;SDS011;64831;44.870;37.336;2023-08-01T11:26:08;8.38;;;2.40;;
76103;SDS011;64831;44.870;37.336;2023-08-01T11:28:34;4.03;;;2.22;;
76103;SDS011;64831;44.870;37.336;2023-08-01T11:31:00;4.70;;;2.33;;
76103;SDS011;64831;44.870;37.336;2023-08-01T11:33:26;5.72;;;2.30;;
76103;SDS011;64831;44.870;37.336;2023-08-01T11:35:53;4.15;;;2.20;;
76103;SDS011;64831;44.870;37.336;2023-08-01T11:38:25;3.05;;;1.88;;
76103;SDS011;64831;44.870;37.336;2023-08-01T11:40:57;4.68;;;2.33;;
76103;SDS011;64831;44.870;37.336;2023-08-01T11:43:23;2.70;;;2.10;;
76103;SDS011;64831;44.870;37.336;2023-08-01T11:45:53;4.25;;;2.40;;
76103;SDS011;64831;44.870;37.336;2023-08-01T11:48:22;4.32;;;2.47;;
76103;SDS011;64831;44.870;37.336;2023-08-01T11:50:48;3.75;;;1.90;;
76103;SDS011;64831;44.870;37.336;2023-08-01T11:53:21;7.82;;;2.40;;
76103;SDS011;64831;44.870;37.336;2023-08-01T11:55:48;3.25;;;2.33;;
76103;SDS011;64831;44.870;37.336;2023-08-01T11:58:40;4.18;;;2.40;;
76103;SDS011;64831;44.870;37.336;2023-08-01T12:01:10;3.90;;;2.20;;
76103;SDS011;64831;44.870;37.336;2023-08-01T12:03:56;4.72;;;2.20;;
76103;SDS011;64831;44.870;37.336;2023-08-01T12:06:23;9.80;;;2.20;;
76103;SDS011;64831;44.870;37.336;2023-08-01T12:08:50;1.98;;;1.58;;
76103;SDS011;64831;44.870;37.336;2023-08-01T12:11:20;4.90;;;2.30;;
76103;SDS011;64831;44.870;37.336;2023-08-01T12:16:46;3.35;;;2.10;;
76103;SDS011;64831;44.870;37.336;2023-08-01T12:19:19;13.20;;;2.40;;
76103;SDS011;64831;44.870;37.336;2023-08-01T12:21:46;2.92;;;2.28;;
76103;SDS011;64831;44.870;37.336;2023-08-01T12:24:13;5.15;;;2.30;;
76103;SDS011;64831;44.870;37.336;2023-08-01T12:26:39;6.68;;;2.42;;
76103;SDS011;64831;44.870;37.336;2023-08-01T12:29:05;2.58;;;2.20;;
76103;SDS011;64831;44.870;37.336;2023-08-01T12:31:31;4.15;;;2.40;;
76103;SDS011;64831;44.870;37.336;2023-08-01T12:33:57;7.35;;;3.30;;
76103;SDS011;64831;44.870;37.336;2023-08-01T12:36:23;4.38;;;2.30;;
76103;SDS011;64831;44.870;37.336;2023-08-01T12:38:49;7.05;;;2.17;;
76103;SDS011;64831;44.870;37.336;2023-08-01T12:41:15;3.95;;;2.40;;
76103;SDS011;64831;44.870;37.336;2023-08-01T12:43:41;4.53;;;2.60;;
76103;SDS011;64831;44.870;37.336;2023-08-01T12:46:07;5.80;;;2.63;;
76103;SDS011;64831;44.870;37.336;2023-08-01T12:48:33;2.75;;;2.13;;
76103;SDS011;64831;44.870;37.336;2023-08-01T12:50:59;3.50;;;2.80;;
76103;SDS011;64831;44.870;37.336;2023-08-01T12:53:25;4.30;;;2.55;;
76103;SDS011;64831;44.870;37.336;2023-08-01T12:55:56;3.17;;;2.35;;
76103;SDS011;64831;44.870;37.336;2023-08-01T12:58:22;8.95;;;3.15;;
76103;SDS011;64831;44.870;37.336;2023-08-01T13:00:48;6.15;;;3.00;;
76103;SDS011;64831;44.870;37.336;2023-08-01T13:03:14;7.50;;;2.50;;
76103;SDS011;64831;44.870;37.336;2023-08-01T13:05:41;2.63;;;2.40;;
76103;SDS011;64831;44.870;37.336;2023-08-01T13:08:08;3.97;;;2.47;;
76103;SDS011;64831;44.870;37.336;2023-08-01T13:10:36;4.35;;;2.40;;
76103;SDS011;64831;44.870;37.336;2023-08-01T13:13:03;4.95;;;2.58;;
76103;SDS011;64831;44.870;37.336;2023-08-01T13:15:29;4.25;;;2.50;;
76103;SDS011;64831;44.870;37.336;2023-08-01T13:17:55;6.03;;;2.70;;
76103;SDS011;64831;44.870;37.336;2023-08-01T13:20:21;5.18;;;2.90;;
76103;SDS011;64831;44.870;37.336;2023-08-01T13:22:50;7.43;;;3.30;;
76103;SDS011;64831;44.870;37.336;2023-08-01T13:25:17;5.78;;;2.65;;
76103;SDS011;64831;44.870;37.336;2023-08-01T13:27:44;4.10;;;2.30;;
76103;SDS011;64831;44.870;37.336;2023-08-01T13:30:10;7.07;;;2.90;;
76103;SDS011;64831;44.870;37.336;2023-08-01T13:32:39;2.83;;;2.45;;
76103;SDS011;64831;44.870;37.336;2023-08-01T13:35:06;7.00;;;2.50;;
76103;SDS011;64831;44.870;37.336;2023-08-01T13:37:32;5.32;;;2.90;;
76103;SDS011;64831;44.870;37.336;2023-08-01T13:39:58;6.43;;;2.40;;
76103;SDS011;64831;44.870;37.336;2023-08-01T13:42:26;6.07;;;2.38;;
76103;SDS011;64831;44.870;37.336;2023-08-01T13:44:53;5.05;;;2.70;;
76103;SDS011;64831;44.870;37.336;2023-08-01T13:47:19;7.57;;;4.53;;
76103;SDS011;64831;44.870;37.336;2023-08-01T13:49:45;3.90;;;2.50;;
76103;SDS011;64831;44.870;37.336;2023-08-01T13:52:11;6.53;;;2.63;;
76103;SDS011;64831;44.870;37.336;2023-08-01T13:54:37;2.72;;;1.90;;
76103;SDS011;64831;44.870;37.336;2023-08-01T13:57:03;6.30;;;2.90;;
76103;SDS011;64831;44.870;37.336;2023-08-01T13:59:29;5.75;;;3.00;;
76103;SDS011;64831;44.870;37.336;2023-08-01T14:01:56;3.15;;;2.50;;
76103;SDS011;64831;44.870;37.336;2023-08-01T14:04:22;2.95;;;2.50;;
76103;SDS011;64831;44.870;37.336;2023-08-01T14:06:48;2.78;;;2.53;;
76103;SDS011;64831;44.870;37.336;2023-08-01T14:09:14;4.22;;;2.67;;
76103;SDS011;64831;44.870;37.336;2023-08-01T14:11:40;6.60;;;2.50;;
76103;SDS011;64831;44.870;37.336;2023-08-01T14:14:06;3.13;;;2.47;;
76103;SDS011;64831;44.870;37.336;2023-08-01T14:16:32;3.35;;;2.95;;
76103;SDS011;64831;44.870;37.336;2023-08-01T14:18:58;8.18;;;2.95;;
76103;SDS011;64831;44.870;37.336;2023-08-01T14:21:25;4.93;;;2.58;;
76103;SDS011;64831;44.870;37.336;2023-08-01T14:23:51;4.82;;;2.88;;
76103;SDS011;64831;44.870;37.336;2023-08-01T14:26:17;4.75;;;2.92;;
76103;SDS011;64831;44.870;37.336;2023-08-01T14:28:43;8.35;;;4.90;;
76103;SDS011;64831;44.870;37.336;2023-08-01T14:31:09;7.43;;;3.35;;
76103;SDS011;64831;44.870;37.336;2023-08-01T14:33:35;6.13;;;3.20;;
76103;SDS011;64831;44.870;37.336;2023-08-01T14:36:07;6.93;;;3.15;;
76103;SDS011;64831;44.870;37.336;2023-08-01T14:38:34;5.47;;;2.90;;
76103;SDS011;64831;44.870;37.336;2023-08-01T14:41:04;6.50;;;2.72;;
76103;SDS011;64831;44.870;37.336;2023-08-01T14:43:30;11.98;;;2.83;;
76103;SDS011;64831;44.870;37.336;2023-08-01T14:45:56;4.25;;;2.80;;